Time;durP1;ratioP1;P1;durP2;ratioP2;P2;SDS_P1;SDS_P2;PMS_P1;PMS_P2;Temp;Humidity;BMP_temperature;BMP_pressure;BME280_temperature;BME280_humidity;BME280_pressure;Samples;Min_cycle;Max_cycle;Signal;HPM_P1;HPM_P2
2023/10/03 00:01:22;;;;;;;16.63;10.85;;;16.10;1.00;;;;;;4961442;28;20413;-87
2023/10/03 00:03:56;;;;;;;15.77;9.80;;;15.90;1.00;;;;;;4958579;28;20451;-87
2023/10/03 00:06:21;;;;;;;15.38;10.10;;;15.80;1.00;;;;;;4955593;28;20468;-87
2023/10/03 00:08:47;;;;;;;18.80;11.32;;;15.80;1.00;;;;;;4968467;28;20822;-87
2023/10/03 00:11:19;;;;;;;14.38;9.82;;;15.80;1.00;;;;;;4965582;28;20400;-87
2023/10/03 00:13:51;;;;;;;18.52;10.43;;;15.70;1.00;;;;;;4962073;28;20459;-87
2023/10/03 00:16:21;;;;;;;16.90;10.75;;;16.30;1.00;;;;;;4964084;28;20396;-87
2023/10/03 00:18:53;;;;;;;15.48;9.57;;;15.70;1.00;;;;;;4965864;28;20911;-87
2023/10/03 00:21:21;;;;;;;16.35;10.20;;;14.30;1.00;;;;;;4954390;28;20442;-87
2023/10/03 00:23:52;;;;;;;15.88;10.00;;;15.60;1.00;;;;;;4961374;28;20837;-87
2023/10/03 00:26:24;;;;;;;16.33;10.57;;;16.70;1.00;;;;;;4973707;28;20404;-86
2023/10/03 00:28:52;;;;;;;13.50;9.17;;;15.60;1.00;;;;;;4961797;28;20402;-87
2023/10/03 00:31:23;;;;;;;16.48;10.68;;;15.60;1.00;;;;;;4979235;28;20408;-87
2023/10/03 00:33:49;;;;;;;15.90;9.45;;;17.60;1.00;;;;;;4959629;28;20494;-87
2023/10/03 00:36:25;;;;;;;15.65;10.32;;;15.50;1.00;;;;;;4975559;28;20628;-86
2023/10/03 00:38:51;;;;;;;13.55;9.30;;;18.80;1.00;;;;;;4959940;28;20430;-87
2023/10/03 00:41:20;;;;;;;13.93;9.45;;;15.60;1.00;;;;;;4960190;28;20409;-87
2023/10/03 00:44:01;;;;;;;15.23;9.75;;;17.20;1.00;;;;;;4968423;28;20971;-86
2023/10/03 00:46:30;;;;;;;15.40;9.93;;;13.90;1.00;;;;;;4961040;28;20786;-87
2023/10/03 00:48:56;;;;;;;14.27;9.38;;;15.60;1.00;;;;;;4960688;28;20436;-87
2023/10/03 00:51:24;;;;;;;16.03;10.13;;;15.50;1.00;;;;;;4960587;28;20880;-87
2023/10/03 00:53:58;;;;;;;14.68;9.13;;;15.60;1.00;;;;;;4975446;28;20406;-86
2023/10/03 00:56:23;;;;;;;14.02;9.50;;;15.50;1.00;;;;;;4965924;28;20440;-87
2023/10/03 00:58:51;;;;;;;14.77;9.90;;;15.40;1.00;;;;;;4965292;28;20421;-87
2023/10/03 01:01:22;;;;;;;14.18;10.00;;;15.30;1.00;;;;;;4972736;28;20463;-86
2023/10/03 01:03:55;;;;;;;13.43;8.82;;;14.80;1.00;;;;;;4976608;28;20396;-87
2023/10/03 01:06:21;;;;;;;14.55;9.70;;;16.30;1.00;;;;;;4964825;28;20430;-88
2023/10/03 01:08:49;;;;;;;15.70;9.57;;;15.20;1.00;;;;;;4991581;28;20464;-87
2023/10/03 01:11:17;;;;;;;15.93;10.38;;;15.20;1.00;;;;;;4978982;28;20418;-87
2023/10/03 01:13:58;;;;;;;14.38;9.77;;;15.10;1.00;;;;;;4987494;28;21089;-86
2023/10/03 01:16:36;;;;;;;13.77;10.05;;;15.90;1.00;;;;;;4976784;28;20426;-87
2023/10/03 01:21:35;;;;;;;14.35;9.85;;;15.10;1.00;;;;;;4957927;28;20386;-87
2023/10/03 01:24:20;;;;;;;13.35;9.00;;;14.90;1.00;;;;;;4972284;28;20417;-87
2023/10/03 01:26:49;;;;;;;15.43;10.33;;;15.00;1.00;;;;;;4958134;28;20951;-87
2023/10/03 01:29:17;;;;;;;16.38;8.82;;;17.10;1.00;;;;;;4960949;28;20492;-87
2023/10/03 01:31:43;;;;;;;14.20;9.13;;;15.30;1.00;;;;;;4982647;28;20398;-87
2023/10/03 01:34:09;;;;;;;12.40;8.70;;;15.00;1.00;;;;;;4976640;28;20473;-87
2023/10/03 01:36:35;;;;;;;14.13;9.10;;;15.00;1.00;;;;;;4993447;28;20395;-87
2023/10/03 01:39:02;;;;;;;12.65;8.32;;;14.90;1.00;;;;;;4991871;28;20396;-86
2023/10/03 01:41:31;;;;;;;13.35;8.68;;;14.80;1.00;;;;;;4977919;28;20407;-87
2023/10/03 01:44:06;;;;;;;13.45;8.80;;;14.90;1.00;;;;;;4958569;28;20386;-87
2023/10/03 01:46:32;;;;;;;13.82;8.48;;;14.90;1.00;;;;;;4973103;28;20481;-86
2023/10/03 01:48:58;;;;;;;13.23;9.02;;;15.00;1.00;;;;;;4957715;28;20483;-86
2023/10/03 01:51:24;;;;;;;14.90;8.40;;;14.90;1.00;;;;;;4946495;28;20407;-86
2023/10/03 01:53:56;;;;;;;13.45;9.00;;;14.80;1.00;;;;;;4938932;29;20392;-87
2023/10/03 01:56:29;;;;;;;15.23;9.63;;;14.80;1.00;;;;;;4967531;28;20408;-87
2023/10/03 01:59:02;;;;;;;12.35;7.90;;;14.70;1.00;;;;;;4954359;28;20404;-86
2023/10/03 02:01:28;;;;;;;12.43;8.00;;;14.80;1.00;;;;;;4951775;28;20410;-86
2023/10/03 02:03:53;;;;;;;14.98;8.27;;;14.80;1.00;;;;;;4957419;28;20890;-86
2023/10/03 02:06:22;;;;;;;14.63;8.53;;;14.70;1.00;;;;;;4971721;28;20415;-87
2023/10/03 02:08:48;;;;;;;13.05;8.13;;;14.80;1.00;;;;;;4971924;28;20918;-87
2023/10/03 02:11:17;;;;;;;12.30;8.43;;;14.90;1.00;;;;;;4959056;28;20484;-86
2023/10/03 02:13:42;;;;;;;13.43;8.70;;;14.90;1.00;;;;;;4958418;28;20409;-87
2023/10/03 02:16:10;;;;;;;11.95;7.68;;;14.70;1.00;;;;;;4977281;28;20413;-87
2023/10/03 02:18:47;;;;;;;11.65;8.05;;;14.80;1.00;;;;;;4983532;28;20420;-87
2023/10/03 02:21:16;;;;;;;16.88;8.90;;;14.70;1.00;;;;;;4970209;28;20408;-87
2023/10/03 02:23:42;;;;;;;12.25;7.85;;;14.60;1.00;;;;;;4977064;28;20468;-87
2023/10/03 02:26:13;;;;;;;10.70;7.47;;;14.60;1.00;;;;;;4965293;28;20415;-87
2023/10/03 02:28:40;;;;;;;11.68;8.10;;;18.10;1.00;;;;;;4968052;28;20411;-86
2023/10/03 02:31:15;;;;;;;12.68;7.70;;;14.70;1.00;;;;;;4960853;28;20406;-87
2023/10/03 02:33:49;;;;;;;11.48;7.47;;;18.20;1.00;;;;;;4956369;28;20453;-87
2023/10/03 02:36:15;;;;;;;10.82;7.80;;;14.70;1.00;;;;;;4956037;28;20494;-85
2023/10/03 02:38:41;;;;;;;12.85;8.20;;;13.80;1.00;;;;;;4973091;28;20494;-85
2023/10/03 02:41:14;;;;;;;11.07;7.90;;;14.60;1.00;;;;;;4964238;28;20470;-86
2023/10/03 02:43:43;;;;;;;10.23;7.80;;;15.30;1.00;;;;;;4955837;28;20403;-86
2023/10/03 02:46:12;;;;;;;12.13;7.80;;;14.70;1.00;;;;;;4952073;28;20424;-86
2023/10/03 02:48:41;;;;;;;11.90;8.32;;;14.50;1.00;;;;;;4959024;28;20967;-86
2023/10/03 02:51:14;;;;;;;10.93;7.90;;;14.50;1.00;;;;;;4952465;28;20843;-86
2023/10/03 02:53:42;;;;;;;10.68;7.88;;;13.10;1.00;;;;;;4971096;28;20388;-86
2023/10/03 02:56:15;;;;;;;10.70;7.47;;;14.60;1.00;;;;;;4957556;28;20494;-86
2023/10/03 02:58:43;;;;;;;12.73;7.97;;;14.60;1.00;;;;;;4953128;28;20488;-86
2023/10/03 03:01:13;;;;;;;11.57;7.70;;;14.50;1.00;;;;;;4969723;28;20457;-86
2023/10/03 03:03:39;;;;;;;11.60;7.35;;;14.60;1.00;;;;;;4951377;28;20427;-86
2023/10/03 03:06:11;;;;;;;11.13;7.15;;;15.30;1.00;;;;;;4962970;28;20851;-86
2023/10/03 03:08:39;;;;;;;10.68;6.90;;;14.80;1.00;;;;;;4971209;28;20495;-87
2023/10/03 03:11:11;;;;;;;10.05;7.30;;;14.80;1.00;;;;;;4971025;28;20403;-86
2023/10/03 03:13:42;;;;;;;10.27;7.30;;;14.80;1.00;;;;;;4970103;28;20443;-86
2023/10/03 03:19:05;;;;;;;9.85;7.07;;;15.00;1.00;;;;;;4968628;28;20410;-86
2023/10/03 03:21:33;;;;;;;9.68;6.93;;;16.40;1.00;;;;;;4949820;28;20872;-86
2023/10/03 03:24:14;;;;;;;12.63;6.63;;;15.20;1.00;;;;;;4933805;29;21056;-87
2023/10/03 03:26:47;;;;;;;9.07;6.75;;;15.20;1.00;;;;;;4948146;28;20441;-86
2023/10/03 03:29:31;;;;;;;7.82;6.63;;;14.70;1.00;;;;;;4963840;28;20794;-86
2023/10/03 03:32:00;;;;;;;8.35;6.50;;;14.90;1.00;;;;;;4959603;28;20396;-86
2023/10/03 03:34:25;;;;;;;9.25;6.88;;;14.90;1.00;;;;;;4965891;28;20896;-86
2023/10/03 03:37:14;;;;;;;9.10;6.40;;;15.00;1.00;;;;;;4972632;28;20468;-86
2023/10/03 03:39:52;;;;;;;8.88;6.70;;;15.10;1.00;;;;;;4977122;28;20446;-86
2023/10/03 03:42:23;;;;;;;8.40;6.07;;;15.50;1.00;;;;;;4971379;28;20392;-85
2023/10/03 03:44:49;;;;;;;8.25;5.93;;;15.00;1.00;;;;;;4954684;28;20409;-85
2023/10/03 03:47:18;;;;;;;9.20;6.05;;;15.50;1.00;;;;;;4970930;28;20496;-86
2023/10/03 03:49:47;;;;;;;8.07;6.20;;;15.60;1.00;;;;;;4971207;28;20404;-86
2023/10/03 03:52:21;;;;;;;9.15;6.32;;;15.60;1.00;;;;;;4957004;28;20494;-86
2023/10/03 03:54:49;;;;;;;9.70;6.00;;;15.50;1.00;;;;;;4952671;28;20401;-85
2023/10/03 03:57:16;;;;;;;7.30;5.50;;;15.50;1.00;;;;;;4952415;28;20924;-86
2023/10/03 03:59:44;;;;;;;9.20;6.30;;;15.60;1.00;;;;;;4952667;28;20921;-86
2023/10/03 04:02:10;;;;;;;8.00;6.18;;;15.70;1.00;;;;;;4961951;28;20400;-86
2023/10/03 04:04:35;;;;;;;8.38;5.85;;;15.60;1.00;;;;;;4971048;28;20414;-86
2023/10/03 04:07:04;;;;;;;8.03;5.93;;;14.70;1.00;;;;;;4960177;28;20403;-86
2023/10/03 04:09:30;;;;;;;8.70;5.70;;;15.60;1.00;;;;;;4957000;28;20429;-86
2023/10/03 04:11:57;;;;;;;8.73;6.60;;;15.80;1.00;;;;;;4955598;28;20405;-86
2023/10/03 04:14:23;;;;;;;7.20;5.30;;;15.70;1.00;;;;;;4957791;28;20408;-86
2023/10/03 04:16:54;;;;;;;7.90;6.00;;;15.70;1.00;;;;;;4973220;28;20400;-86
2023/10/03 04:19:32;;;;;;;7.10;5.60;;;15.90;1.00;;;;;;4970587;28;20402;-86
2023/10/03 04:22:11;;;;;;;9.15;5.75;;;15.80;1.00;;;;;;4953153;28;20418;-86
2023/10/03 04:24:39;;;;;;;8.05;5.60;;;17.00;1.00;;;;;;4969737;28;20412;-86
2023/10/03 04:27:07;;;;;;;6.43;5.47;;;15.80;1.00;;;;;;4963313;28;20452;-86
2023/10/03 04:29:33;;;;;;;6.50;5.50;;;16.20;1.00;;;;;;4956105;28;20484;-86
2023/10/03 04:32:04;;;;;;;7.10;4.88;;;15.20;1.00;;;;;;4955216;28;20396;-86
2023/10/03 04:34:32;;;;;;;6.80;4.40;;;16.70;1.00;;;;;;4967454;28;20446;-86
2023/10/03 04:36:58;;;;;;;6.55;4.40;;;17.40;1.00;;;;;;4969758;28;20411;-86
2023/10/03 04:39:24;;;;;;;7.00;4.70;;;17.80;1.00;;;;;;4974159;28;20463;-86
2023/10/03 04:41:53;;;;;;;6.07;4.17;;;18.20;1.00;;;;;;4975190;28;20404;-85
2023/10/03 04:44:19;;;;;;;6.40;4.50;;;19.30;1.00;;;;;;4966437;28;20929;-86
2023/10/03 04:46:45;;;;;;;7.40;4.70;;;19.70;1.00;;;;;;4956411;28;20497;-85
2023/10/03 04:52:50;;;;;;;6.20;4.60;;;21.10;1.00;;;;;;4953912;29;20402;-86
2023/10/03 04:55:21;;;;;;;6.18;4.80;;;19.60;1.00;;;;;;4961819;28;20398;-86
2023/10/03 04:57:50;;;;;;;5.30;4.50;;;19.10;1.00;;;;;;4970465;28;20410;-86
2023/10/03 05:00:16;;;;;;;6.68;4.57;;;19.50;1.00;;;;;;4936517;28;20430;-86
2023/10/03 05:02:47;;;;;;;6.40;4.15;;;19.80;1.00;;;;;;4970174;28;20392;-86
2023/10/03 05:05:20;;;;;;;6.00;4.40;;;20.50;1.00;;;;;;4973703;28;20412;-86
2023/10/03 05:07:52;;;;;;;5.18;4.20;;;20.80;1.00;;;;;;4974010;28;20447;-86
2023/10/03 05:10:18;;;;;;;6.05;4.30;;;20.30;1.00;;;;;;4951927;29;20403;-86
2023/10/03 05:12:48;;;;;;;7.13;4.80;;;21.70;1.00;;;;;;4937372;29;20429;-86
2023/10/03 05:15:14;;;;;;;5.60;4.10;;;21.20;1.00;;;;;;4953391;28;20409;-86
2023/10/03 05:17:43;;;;;;;5.60;4.30;;;20.20;1.00;;;;;;4967394;28;20380;-87
2023/10/03 05:20:10;;;;;;;4.78;3.95;;;21.40;1.00;;;;;;4971252;28;20406;-86
2023/10/03 05:22:42;;;;;;;6.57;4.20;;;19.80;1.00;;;;;;4967228;28;20397;-86
2023/10/03 05:25:17;;;;;;;6.03;4.20;;;19.50;1.00;;;;;;4968577;28;20411;-86
2023/10/03 05:27:53;;;;;;;6.22;4.28;;;19.60;1.00;;;;;;4957563;28;20402;-87
2023/10/03 05:30:23;;;;;;;5.53;4.70;;;20.10;1.00;;;;;;4960330;28;20458;-87
2023/10/03 05:32:51;;;;;;;4.90;4.20;;;19.00;1.00;;;;;;4972812;28;20398;-87
2023/10/03 05:35:17;;;;;;;5.13;4.22;;;19.20;1.00;;;;;;4971614;28;20520;-87
2023/10/03 05:37:45;;;;;;;6.10;4.33;;;19.00;1.00;;;;;;4964939;28;20468;-87
2023/10/03 05:40:22;;;;;;;7.70;4.30;;;18.50;1.00;;;;;;4961469;28;20425;-87
2023/10/03 05:42:54;;;;;;;6.78;4.63;;;19.30;1.00;;;;;;4972558;28;20409;-87
2023/10/03 05:45:20;;;;;;;6.60;4.60;;;18.10;1.00;;;;;;4964024;28;20498;-87
2023/10/03 05:47:47;;;;;;;4.63;4.13;;;17.70;1.00;;;;;;4961998;28;20429;-87
2023/10/03 05:50:16;;;;;;;5.68;4.50;;;17.40;1.00;;;;;;4959593;28;20410;-87
2023/10/03 05:52:45;;;;;;;5.13;4.13;;;17.50;1.00;;;;;;4957053;28;20394;-87
2023/10/03 05:55:19;;;;;;;5.13;4.60;;;18.60;1.00;;;;;;4960607;28;20498;-87
2023/10/03 05:57:44;;;;;;;5.50;4.20;;;18.50;1.00;;;;;;4958364;28;20463;-87
2023/10/03 06:00:18;;;;;;;6.40;4.10;;;19.10;1.00;;;;;;4962212;28;20441;-87
2023/10/03 06:02:47;;;;;;;5.60;4.23;;;18.90;1.00;;;;;;4961275;28;20402;-87
2023/10/03 06:05:16;;;;;;;5.03;4.20;;;20.30;1.00;;;;;;4957376;28;20409;-87
2023/10/03 06:07:42;;;;;;;5.95;4.53;;;20.20;1.00;;;;;;4974380;28;20385;-87
2023/10/03 06:10:11;;;;;;;6.47;4.80;;;18.30;1.00;;;;;;4959765;28;20412;-87
2023/10/03 06:12:42;;;;;;;6.40;4.60;;;18.20;1.00;;;;;;4961395;28;20409;-87
2023/10/03 06:15:14;;;;;;;7.93;4.93;;;20.30;1.00;;;;;;4960452;28;20410;-87
2023/10/03 06:17:53;;;;;;;5.70;4.80;;;19.10;1.00;;;;;;4963894;28;20506;-87
2023/10/03 06:20:24;;;;;;;6.70;4.67;;;18.50;1.00;;;;;;4956887;28;20401;-88
2023/10/03 06:22:59;;;;;;;7.00;4.78;;;18.70;1.00;;;;;;4979494;28;20394;-87
2023/10/03 06:25:36;;;;;;;6.00;4.30;;;18.70;1.00;;;;;;4977278;28;20413;-87
2023/10/03 06:28:04;;;;;;;5.38;4.18;;;20.20;1.00;;;;;;4997045;28;20488;-88
2023/10/03 06:30:42;;;;;;;6.70;4.10;;;18.70;1.00;;;;;;4970821;28;20402;-88
2023/10/03 06:33:19;;;;;;;6.63;4.10;;;18.60;1.00;;;;;;4962081;28;20490;-88
2023/10/03 06:35:45;;;;;;;6.05;4.10;;;19.80;1.00;;;;;;4955746;28;20459;-87
2023/10/03 06:38:28;;;;;;;5.30;4.35;;;19.60;1.00;;;;;;4964657;28;20846;-86
2023/10/03 06:40:54;;;;;;;5.20;4.10;;;19.90;1.00;;;;;;4950825;28;20450;-86
2023/10/03 06:43:30;;;;;;;6.78;4.00;;;20.50;1.00;;;;;;4977532;28;20404;-86
2023/10/03 06:46:06;;;;;;;7.10;4.20;;;20.70;1.00;;;;;;4962804;28;20780;-87
2023/10/03 06:48:32;;;;;;;4.28;3.85;;;20.40;1.00;;;;;;4954272;28;20845;-86
2023/10/03 06:51:13;;;;;;;6.77;4.43;;;20.90;1.00;;;;;;4978116;28;20429;-86
2023/10/03 06:53:41;;;;;;;6.00;4.83;;;19.50;1.00;;;;;;4965162;28;20406;-86
2023/10/03 06:59:08;;;;;;;5.20;4.40;;;21.00;1.00;;;;;;4981109;28;20417;-88
2023/10/03 07:01:37;;;;;;;5.03;4.00;;;21.00;1.00;;;;;;4988028;28;20468;-88
2023/10/03 07:04:06;;;;;;;5.13;4.53;;;21.10;1.00;;;;;;4959587;28;20408;-87
2023/10/03 07:06:35;;;;;;;6.40;4.90;;;21.10;1.00;;;;;;4968356;28;20406;-87
2023/10/03 07:09:07;;;;;;;6.80;4.80;;;21.20;1.00;;;;;;4959253;28;20405;-88
2023/10/03 07:11:40;;;;;;;6.03;5.35;;;21.40;1.00;;;;;;4954203;29;20405;-86
2023/10/03 07:14:12;;;;;;;5.30;4.50;;;20.80;1.00;;;;;;4955361;28;20395;-90
2023/10/03 07:16:38;;;;;;;7.35;4.50;;;21.50;1.00;;;;;;4954804;28;20429;-86
2023/10/03 07:19:04;;;;;;;7.40;5.00;;;21.50;1.00;;;;;;4954161;28;20444;-86
2023/10/03 07:21:30;;;;;;;7.72;5.28;;;22.60;1.00;;;;;;4963906;28;20398;-88
2023/10/03 07:23:56;;;;;;;6.43;5.00;;;21.70;1.00;;;;;;4971621;28;20425;-85
2023/10/03 07:26:22;;;;;;;6.07;5.00;;;22.90;1.00;;;;;;4955636;28;20421;-86
2023/10/03 07:28:47;;;;;;;6.70;5.20;;;21.80;1.00;;;;;;4958055;28;20441;-88
2023/10/03 07:31:14;;;;;;;6.10;5.00;;;21.70;1.00;;;;;;4953062;28;20395;-88
2023/10/03 07:33:43;;;;;;;7.00;5.22;;;23.20;1.00;;;;;;4957659;29;20404;-86
2023/10/03 07:36:09;;;;;;;6.93;4.75;;;22.70;1.00;;;;;;4952214;28;20394;-86
2023/10/03 07:38:35;;;;;;;7.20;5.60;;;21.70;1.00;;;;;;4947410;28;20408;-86
2023/10/03 07:41:09;;;;;;;7.45;5.25;;;21.10;1.00;;;;;;4955286;28;20442;-88
2023/10/03 07:43:34;;;;;;;8.27;5.07;;;22.10;1.00;;;;;;4956989;28;20390;-87
2023/10/03 07:46:00;;;;;;;8.43;5.23;;;21.90;1.00;;;;;;4957741;28;20417;-86
2023/10/03 07:48:26;;;;;;;6.35;5.03;;;22.00;1.00;;;;;;4958425;28;20408;-87
2023/10/03 07:50:52;;;;;;;7.35;5.03;;;22.80;1.00;;;;;;4960528;28;20405;-88
2023/10/03 07:53:18;;;;;;;7.20;5.00;;;21.50;1.00;;;;;;4957438;29;20410;-86
2023/10/03 07:55:43;;;;;;;7.20;5.20;;;22.20;1.00;;;;;;4968456;28;20402;-87
2023/10/03 07:58:14;;;;;;;6.90;4.78;;;21.90;1.00;;;;;;4959702;28;20425;-88
2023/10/03 08:00:40;;;;;;;6.22;4.60;;;23.70;1.00;;;;;;4953203;28;20409;-88
2023/10/03 08:03:08;;;;;;;6.90;5.00;;;23.50;1.00;;;;;;4955546;29;20401;-88
2023/10/03 08:05:34;;;;;;;5.80;4.40;;;23.90;1.00;;;;;;4960068;28;20429;-87
2023/10/03 08:08:02;;;;;;;5.20;4.30;;;23.50;1.00;;;;;;4964937;28;20405;-86
2023/10/03 08:10:30;;;;;;;6.00;4.60;;;23.20;1.00;;;;;;4972262;28;20454;-85
2023/10/03 08:12:55;;;;;;;6.40;4.60;;;23.10;1.00;;;;;;4967151;28;20521;-86
2023/10/03 08:15:23;;;;;;;4.63;3.90;;;22.30;1.00;;;;;;4961375;29;20558;-86
2023/10/03 08:17:53;;;;;;;5.10;4.25;;;21.90;1.00;;;;;;4964028;28;20412;-86
2023/10/03 08:20:21;;;;;;;4.75;4.10;;;23.10;1.00;;;;;;4959882;28;20394;-86
2023/10/03 08:22:55;;;;;;;6.30;4.28;;;22.70;1.00;;;;;;4956269;28;20393;-87
2023/10/03 08:25:23;;;;;;;4.97;3.90;;;23.80;1.00;;;;;;4957232;28;20409;-87
2023/10/03 08:27:50;;;;;;;6.20;4.03;;;22.80;1.00;;;;;;4956779;28;20412;-87
2023/10/03 08:33:19;;;;;;;4.90;3.90;;;23.40;1.00;;;;;;4957292;28;20464;-86
2023/10/03 08:35:57;;;;;;;4.05;3.65;;;22.90;1.00;;;;;;4949369;29;20405;-86
2023/10/03 08:38:31;;;;;;;4.57;3.58;;;24.60;1.00;;;;;;4955586;28;20421;-86
2023/10/03 08:44:43;;;;;;;4.97;4.13;;;23.30;1.00;;;;;;4962972;28;20416;-88
2023/10/03 08:47:25;;;;;;;;;;;;;;;;;;;;;
2023/10/03 08:50:29;;;;;;;6.07;4.30;;;23.50;1.00;;;;;;4957054;28;20496;-86
2023/10/03 08:53:26;;;;;;;5.07;3.88;;;26.40;1.00;;;;;;4957195;28;20394;-88
2023/10/03 08:55:57;;;;;;;4.95;3.95;;;23.40;1.00;;;;;;4978935;28;20925;-87
2023/10/03 08:58:27;;;;;;;5.07;4.00;;;24.90;1.00;;;;;;4958382;28;20430;-88
2023/10/03 09:01:17;;;;;;;6.13;4.00;;;23.60;1.00;;;;;;4957936;28;20926;-87
2023/10/03 09:04:04;;;;;;;6.10;3.97;;;23.70;1.00;;;;;;4963077;29;20390;-89
2023/10/03 09:06:31;;;;;;;6.67;3.90;;;23.60;1.00;;;;;;4981383;28;20412;-86
2023/10/03 09:09:08;;;;;;;7.60;4.00;;;23.70;1.00;;;;;;4956931;28;20441;-86
2023/10/03 09:11:50;;;;;;;5.80;4.30;;;24.00;1.00;;;;;;4957624;29;20406;-86
2023/10/03 09:14:19;;;;;;;4.65;4.03;;;24.00;1.00;;;;;;4956455;28;20411;-87
2023/10/03 09:17:03;;;;;;;5.50;3.90;;;22.60;1.00;;;;;;4956399;28;20457;-88
2023/10/03 09:19:50;;;;;;;5.93;3.83;;;24.70;1.00;;;;;;4957084;28;20465;-85
2023/10/03 09:22:37;;;;;;;6.15;4.25;;;24.50;1.00;;;;;;4962034;28;20433;-86
2023/10/03 09:25:08;;;;;;;4.97;4.10;;;25.80;1.00;;;;;;4963358;28;20462;-87
2023/10/03 09:27:34;;;;;;;6.78;3.75;;;23.50;1.00;;;;;;4976240;28;20501;-86
2023/10/03 09:30:22;;;;;;;5.43;3.90;;;23.40;1.00;;;;;;4975031;28;20402;-86
2023/10/03 09:32:53;;;;;;;4.70;3.60;;;25.40;1.00;;;;;;4973734;28;20865;-86
2023/10/03 09:35:28;;;;;;;4.72;4.00;;;23.80;1.00;;;;;;4975736;28;20472;-87
2023/10/03 09:38:01;;;;;;;5.03;4.03;;;23.30;1.00;;;;;;4972441;28;20397;-86
2023/10/03 09:40:27;;;;;;;4.55;4.00;;;23.20;1.00;;;;;;4978047;28;20402;-85
2023/10/03 09:42:55;;;;;;;6.25;4.07;;;23.40;1.00;;;;;;4957064;29;20468;-87
2023/10/03 09:45:31;;;;;;;6.07;3.97;;;23.50;1.00;;;;;;4957467;29;20429;-87
2023/10/03 09:47:58;;;;;;;4.80;4.30;;;23.50;1.00;;;;;;4975887;28;20400;-84
2023/10/03 09:50:33;;;;;;;5.57;4.03;;;22.00;1.00;;;;;;4965050;28;20389;-85
2023/10/03 09:53:02;;;;;;;6.35;4.40;;;23.80;1.00;;;;;;4959939;28;20770;-88
2023/10/03 09:55:47;;;;;;;5.10;4.60;;;23.60;1.00;;;;;;4966361;28;20421;-87
2023/10/03 09:58:24;;;;;;;4.93;4.20;;;25.90;1.00;;;;;;4962890;28;20420;-87
2023/10/03 10:01:18;;;;;;;5.05;4.50;;;24.90;1.00;;;;;;4959955;29;20463;-86
2023/10/03 10:04:12;;;;;;;4.70;4.00;;;26.30;1.00;;;;;;4986749;28;20409;-89
2023/10/03 10:07:30;;;;;;;5.77;4.73;;;23.70;1.00;;;;;;4963918;28;20425;-89
2023/10/03 10:10:35;;;;;;;5.60;4.40;;;24.40;1.00;;;;;;4967051;28;20886;-88
2023/10/03 10:13:49;;;;;;;6.30;4.25;;;23.80;1.00;;;;;;4956191;29;20413;-90
2023/10/03 10:16:20;;;;;;;6.22;4.30;;;25.80;1.00;;;;;;4954775;28;20421;-89
2023/10/03 10:22:27;;;;;;;6.20;4.90;;;27.90;1.00;;;;;;4948006;28;20399;-91
2023/10/03 10:25:41;;;;;;;7.63;4.90;;;24.30;1.00;;;;;;4961954;29;20422;-88
2023/10/03 10:28:47;;;;;;;7.05;5.30;;;25.00;1.00;;;;;;4943747;29;20459;-89
2023/10/03 10:32:00;;;;;;;5.43;4.50;;;25.50;1.00;;;;;;4942897;29;20426;-90
2023/10/03 10:37:54;;;;;;;8.10;5.35;;;25.10;1.00;;;;;;4946262;28;20427;-88
2023/10/03 10:41:30;;;;;;;5.78;5.15;;;24.30;1.00;;;;;;4985293;28;20396;-90
2023/10/03 10:44:31;;;;;;;15.95;5.60;;;24.00;1.00;;;;;;5003383;28;20411;-88
2023/10/03 10:47:10;;;;;;;6.20;5.10;;;24.00;1.00;;;;;;4951335;28;20426;-89
2023/10/03 10:49:50;;;;;;;5.60;4.97;;;24.00;1.00;;;;;;4983867;28;20396;-89
2023/10/03 10:53:06;;;;;;;;;;;;;;;;;;;;;
2023/10/03 10:56:04;;;;;;;6.60;5.30;;;23.80;1.00;;;;;;4965021;28;20481;-89
2023/10/03 11:05:10;;;;;;;6.18;5.45;;;23.80;1.00;;;;;;4966824;28;20461;-91
2023/10/03 11:07:49;;;;;;;6.18;5.18;;;25.40;1.00;;;;;;4981597;28;20408;-90
2023/10/03 11:10:21;;;;;;;6.60;4.72;;;26.40;1.00;;;;;;4984220;28;20776;-92
2023/10/03 11:31:42;;;;;;;6.88;5.38;;;25.60;1.00;;;;;;4987779;28;20447;-90
2023/10/03 11:34:42;;;;;;;6.18;4.75;;;27.80;1.00;;;;;;4984550;28;20427;-90
2023/10/03 11:37:56;;;;;;;7.00;5.40;;;26.30;1.00;;;;;;4990350;28;20408;-90
2023/10/03 11:48:26;;;;;;;8.15;5.10;;;28.60;1.00;;;;;;4964601;28;20874;-89
2023/10/03 11:51:25;;;;;;;7.33;5.10;;;27.00;1.00;;;;;;4980479;28;20408;-90
2023/10/03 11:53:57;;;;;;;6.32;5.10;;;25.80;1.00;;;;;;4995912;28;20423;-90
2023/10/03 11:56:25;;;;;;;7.18;5.35;;;25.90;1.00;;;;;;4964640;28;20394;-90
2023/10/03 11:59:12;;;;;;;;;;;;;;;;;;;;;
2023/10/03 12:02:01;;;;;;;6.20;4.80;;;26.00;1.00;;;;;;4989157;28;20431;-88
2023/10/03 12:04:29;;;;;;;7.67;4.87;;;25.00;1.00;;;;;;4989939;28;20407;-87
2023/10/03 12:07:51;;;;;;;7.55;5.00;;;25.40;1.00;;;;;;4993757;28;20424;-90
2023/10/03 12:10:21;;;;;;;5.90;5.10;;;25.10;1.00;;;;;;4970878;28;20400;-87
2023/10/03 12:12:50;;;;;;;6.55;4.90;;;24.70;1.00;;;;;;4978372;28;20392;-88
2023/10/03 12:15:42;;;;;;;7.60;4.60;;;24.90;1.00;;;;;;4976284;28;20400;-92
2023/10/03 12:18:08;;;;;;;7.47;5.65;;;25.40;1.00;;;;;;4976163;28;20403;-90
2023/10/03 12:20:47;;;;;;;6.73;5.30;;;25.10;1.00;;;;;;4974551;28;20389;-90
2023/10/03 12:23:12;;;;;;;8.10;5.65;;;28.20;1.00;;;;;;4974810;28;20455;-89
2023/10/03 12:25:38;;;;;;;6.13;4.88;;;25.30;1.00;;;;;;4980796;28;20495;-87
2023/10/03 12:28:09;;;;;;;6.20;5.03;;;26.20;1.00;;;;;;4977689;28;20411;-91
2023/10/03 12:30:38;;;;;;;7.88;5.80;;;25.00;1.00;;;;;;4977206;28;20411;-89
2023/10/03 12:33:03;;;;;;;6.70;5.30;;;24.50;1.00;;;;;;4984268;28;20479;-90
2023/10/03 12:35:29;;;;;;;8.13;5.22;;;24.30;1.00;;;;;;4992874;28;20419;-90
2023/10/03 12:37:58;;;;;;;7.37;5.27;;;24.20;1.00;;;;;;4990306;28;20923;-89
2023/10/03 12:40:27;;;;;;;6.60;5.20;;;24.60;1.00;;;;;;4977738;28;20404;-89
2023/10/03 12:42:52;;;;;;;7.13;5.13;;;24.30;1.00;;;;;;4977357;28;20931;-89
2023/10/03 12:45:20;;;;;;;6.93;5.60;;;25.40;1.00;;;;;;4977084;28;20415;-88
2023/10/03 12:47:48;;;;;;;6.25;5.18;;;24.50;1.00;;;;;;4976674;28;20401;-87
2023/10/03 12:50:21;;;;;;;7.63;5.77;;;25.60;1.00;;;;;;4974320;28;20477;-87
2023/10/03 12:55:38;;;;;;;7.63;6.28;;;23.50;1.00;;;;;;4978154;28;20404;-84
2023/10/03 12:58:12;;;;;;;7.37;6.03;;;23.40;1.00;;;;;;4975268;28;20388;-85
2023/10/03 13:00:43;;;;;;;6.90;5.80;;;23.40;1.00;;;;;;4975017;28;20404;-86
2023/10/03 13:03:46;;;;;;;7.20;5.80;;;23.40;1.00;;;;;;4977782;28;20384;-93
2023/10/03 13:06:30;;;;;;;6.57;5.50;;;26.20;1.00;;;;;;4985310;28;20803;-89
2023/10/03 13:09:08;;;;;;;8.10;5.90;;;23.40;1.00;;;;;;4976519;28;20447;-90
2023/10/03 13:11:34;;;;;;;7.45;5.90;;;23.40;1.00;;;;;;4980130;28;20384;-91
2023/10/03 13:14:09;;;;;;;6.20;5.20;;;23.30;1.00;;;;;;4982705;28;20396;-92
2023/10/03 13:16:40;;;;;;;7.30;5.60;;;23.30;1.00;;;;;;4980261;28;20435;-92
2023/10/03 13:19:05;;;;;;;6.40;5.25;;;23.40;1.00;;;;;;4979835;28;20420;-90
2023/10/03 13:21:33;;;;;;;7.87;5.77;;;23.40;1.00;;;;;;4985474;28;20392;-91
2023/10/03 13:24:07;;;;;;;6.40;5.32;;;23.40;1.00;;;;;;4984752;28;20411;-91
2023/10/03 13:26:34;;;;;;;5.93;5.10;;;24.10;1.00;;;;;;4986039;28;20411;-91
2023/10/03 13:29:08;;;;;;;7.63;5.25;;;23.30;1.00;;;;;;4991018;28;20396;-89
2023/10/03 13:31:37;;;;;;;8.50;5.75;;;23.40;1.00;;;;;;4982849;28;20994;-92
2023/10/03 13:37:43;;;;;;;5.75;5.10;;;22.90;1.00;;;;;;4986905;28;20415;-92
2023/10/03 13:42:54;;;;;;;7.00;5.20;;;23.20;1.00;;;;;;5275986;23;20412;-91
2023/10/03 13:45:37;;;;;;;7.55;5.45;;;23.10;1.00;;;;;;4990085;28;20455;-92
2023/10/03 13:48:08;;;;;;;10.70;5.83;;;25.10;1.00;;;;;;4994426;28;20415;-92
2023/10/03 13:50:55;;;;;;;10.93;5.88;;;23.00;1.00;;;;;;4992836;28;20411;-90
2023/10/03 13:53:42;;;;;;;;;;;;;;;;;;;;;
2023/10/03 13:56:11;;;;;;;6.72;5.05;;;18.70;1.00;;;;;;4996579;28;20430;-92
2023/10/03 13:58:44;;;;;;;9.07;5.00;;;23.30;1.00;;;;;;5011851;23;20442;-89
2023/10/03 14:01:13;;;;;;;6.28;5.13;;;22.90;1.00;;;;;;4999424;28;20489;-86
2023/10/03 14:04:08;;;;;;;7.25;4.68;;;23.50;1.00;;;;;;5007457;28;20416;-94
2023/10/03 14:09:28;;;;;;;6.15;5.20;;;24.70;1.00;;;;;;4998450;28;20491;-91
2023/10/03 14:11:59;;;;;;;8.02;5.40;;;24.20;1.00;;;;;;4999093;28;20414;-91
2023/10/03 14:14:25;;;;;;;5.80;5.20;;;23.80;1.00;;;;;;4987971;28;20403;-91
2023/10/03 14:17:00;;;;;;;7.68;4.60;;;22.90;1.00;;;;;;5002312;28;20408;-91
2023/10/03 14:19:35;;;;;;;5.57;4.67;;;22.90;1.00;;;;;;4999980;28;20499;-92
2023/10/03 14:22:02;;;;;;;7.47;5.35;;;22.70;1.00;;;;;;4981821;28;20416;-91
2023/10/03 14:24:29;;;;;;;7.03;4.68;;;23.00;1.00;;;;;;4985325;28;20402;-91
2023/10/03 14:30:40;;;;;;;6.00;4.78;;;26.20;1.00;;;;;;4985269;28;20450;-91
2023/10/03 14:33:09;;;;;;;7.03;5.35;;;24.70;1.00;;;;;;4982747;28;20402;-91
2023/10/03 14:35:38;;;;;;;8.40;4.80;;;25.40;1.00;;;;;;4989335;28;20474;-89
2023/10/03 14:38:05;;;;;;;7.23;4.40;;;23.50;1.00;;;;;;4981975;28;20423;-91
2023/10/03 14:40:31;;;;;;;6.80;4.80;;;23.80;1.00;;;;;;4981011;28;20404;-91
2023/10/03 14:42:57;;;;;;;8.57;4.60;;;23.10;1.00;;;;;;4988145;28;20411;-92